sensor_id;sensor_type;location;lat;lon;timestamp;P1;durP1;ratioP1;P2;durP2;ratioP2
10582;SDS011;33679;51.218;6.786;2022-11-15T00:00:41;7.30;;;4.83;;
10582;SDS011;33679;51.218;6.786;2022-11-15T00:03:27;9.40;;;4.50;;
10582;SDS011;33679;51.218;6.786;2022-11-15T00:06:13;5.23;;;3.73;;
10582;SDS011;33679;51.218;6.786;2022-11-15T00:08:58;8.60;;;4.90;;
10582;SDS011;33679;51.218;6.786;2022-11-15T00:11:46;5.83;;;4.30;;
10582;SDS011;33679;51.218;6.786;2022-11-15T00:14:32;5.30;;;3.80;;
10582;SDS011;33679;51.218;6.786;2022-11-15T00:17:17;4.30;;;3.37;;
10582;SDS011;33679;51.218;6.786;2022-11-15T00:20:03;9.33;;;4.70;;
10582;SDS011;33679;51.218;6.786;2022-11-15T00:22:49;10.63;;;4.63;;
10582;SDS011;33679;51.218;6.786;2022-11-15T00:25:35;7.57;;;4.73;;
10582;SDS011;33679;51.218;6.786;2022-11-15T00:28:22;10.53;;;4.60;;
10582;SDS011;33679;51.218;6.786;2022-11-15T00:31:09;6.43;;;4.40;;
10582;SDS011;33679;51.218;6.786;2022-11-15T00:33:57;6.43;;;4.50;;
10582;SDS011;33679;51.218;6.786;2022-11-15T00:36:43;7.90;;;4.13;;
10582;SDS011;33679;51.218;6.786;2022-11-15T00:39:28;7.93;;;4.77;;
10582;SDS011;33679;51.218;6.786;2022-11-15T00:42:15;6.77;;;4.97;;
10582;SDS011;33679;51.218;6.786;2022-11-15T00:45:02;6.03;;;4.23;;
10582;SDS011;33679;51.218;6.786;2022-11-15T00:47:48;6.33;;;4.13;;
10582;SDS011;33679;51.218;6.786;2022-11-15T00:50:34;8.40;;;5.10;;
10582;SDS011;33679;51.218;6.786;2022-11-15T00:53:20;6.60;;;4.23;;
10582;SDS011;33679;51.218;6.786;2022-11-15T00:56:05;6.53;;;4.40;;
10582;SDS011;33679;51.218;6.786;2022-11-15T00:58:52;8.07;;;4.70;;
10582;SDS011;33679;51.218;6.786;2022-11-15T01:01:40;6.40;;;4.47;;
10582;SDS011;33679;51.218;6.786;2022-11-15T01:04:26;5.87;;;4.00;;
10582;SDS011;33679;51.218;6.786;2022-11-15T01:07:11;5.53;;;4.20;;
10582;SDS011;33679;51.218;6.786;2022-11-15T01:09:56;7.47;;;4.10;;
10582;SDS011;33679;51.218;6.786;2022-11-15T01:12:42;8.50;;;4.70;;
10582;SDS011;33679;51.218;6.786;2022-11-15T01:15:28;5.87;;;3.97;;
10582;SDS011;33679;51.218;6.786;2022-11-15T01:18:15;7.63;;;4.93;;
10582;SDS011;33679;51.218;6.786;2022-11-15T01:21:04;7.17;;;4.73;;
10582;SDS011;33679;51.218;6.786;2022-11-15T01:23:52;6.43;;;4.20;;
10582;SDS011;33679;51.218;6.786;2022-11-15T01:26:38;8.70;;;4.87;;
10582;SDS011;33679;51.218;6.786;2022-11-15T01:29:24;6.37;;;4.50;;
10582;SDS011;33679;51.218;6.786;2022-11-15T01:32:10;7.63;;;4.23;;
10582;SDS011;33679;51.218;6.786;2022-11-15T01:34:58;6.10;;;4.23;;
10582;SDS011;33679;51.218;6.786;2022-11-15T01:37:43;7.30;;;4.00;;
10582;SDS011;33679;51.218;6.786;2022-11-15T01:40:29;6.30;;;3.93;;
10582;SDS011;33679;51.218;6.786;2022-11-15T01:43:21;4.47;;;3.43;;
10582;SDS011;33679;51.218;6.786;2022-11-15T01:46:14;6.30;;;4.00;;
10582;SDS011;33679;51.218;6.786;2022-11-15T01:49:11;6.17;;;3.90;;
10582;SDS011;33679;51.218;6.786;2022-11-15T01:52:03;5.80;;;3.80;;
10582;SDS011;33679;51.218;6.786;2022-11-15T01:54:53;6.27;;;4.27;;
10582;SDS011;33679;51.218;6.786;2022-11-15T01:57:43;6.47;;;4.20;;
10582;SDS011;33679;51.218;6.786;2022-11-15T02:00:32;7.30;;;4.53;;
10582;SDS011;33679;51.218;6.786;2022-11-15T02:03:18;6.97;;;4.43;;
10582;SDS011;33679;51.218;6.786;2022-11-15T02:06:06;7.77;;;4.60;;
10582;SDS011;33679;51.218;6.786;2022-11-15T02:08:54;5.63;;;4.10;;
10582;SDS011;33679;51.218;6.786;2022-11-15T02:11:42;6.27;;;4.20;;
10582;SDS011;33679;51.218;6.786;2022-11-15T02:14:30;5.20;;;4.10;;
10582;SDS011;33679;51.218;6.786;2022-11-15T02:17:25;7.77;;;4.00;;
10582;SDS011;33679;51.218;6.786;2022-11-15T02:20:39;5.17;;;4.00;;
10582;SDS011;33679;51.218;6.786;2022-11-15T02:26:59;7.40;;;3.83;;
10582;SDS011;33679;51.218;6.786;2022-11-15T02:30:23;5.13;;;3.97;;
10582;SDS011;33679;51.218;6.786;2022-11-15T02:33:12;5.37;;;3.37;;
10582;SDS011;33679;51.218;6.786;2022-11-15T02:36:08;4.70;;;3.50;;
10582;SDS011;33679;51.218;6.786;2022-11-15T02:38:59;6.67;;;4.70;;
10582;SDS011;33679;51.218;6.786;2022-11-15T02:41:53;6.87;;;4.10;;
10582;SDS011;33679;51.218;6.786;2022-11-15T02:44:43;5.13;;;3.60;;
10582;SDS011;33679;51.218;6.786;2022-11-15T02:47:31;7.20;;;4.40;;
10582;SDS011;33679;51.218;6.786;2022-11-15T02:50:23;4.80;;;3.90;;
10582;SDS011;33679;51.218;6.786;2022-11-15T02:53:10;8.20;;;3.93;;
10582;SDS011;33679;51.218;6.786;2022-11-15T02:55:56;7.50;;;4.77;;
10582;SDS011;33679;51.218;6.786;2022-11-15T02:58:48;5.87;;;4.20;;
10582;SDS011;33679;51.218;6.786;2022-11-15T03:01:47;9.80;;;5.00;;
10582;SDS011;33679;51.218;6.786;2022-11-15T03:04:45;7.60;;;4.40;;
10582;SDS011;33679;51.218;6.786;2022-11-15T03:07:38;5.60;;;3.87;;
10582;SDS011;33679;51.218;6.786;2022-11-15T03:10:32;5.00;;;4.13;;
10582;SDS011;33679;51.218;6.786;2022-11-15T03:13:27;8.33;;;4.20;;
10582;SDS011;33679;51.218;6.786;2022-11-15T03:16:22;6.30;;;4.40;;
10582;SDS011;33679;51.218;6.786;2022-11-15T03:19:13;8.07;;;4.90;;
10582;SDS011;33679;51.218;6.786;2022-11-15T03:22:05;7.10;;;5.00;;
10582;SDS011;33679;51.218;6.786;2022-11-15T03:24:56;9.07;;;5.27;;
10582;SDS011;33679;51.218;6.786;2022-11-15T03:27:45;5.60;;;4.03;;
10582;SDS011;33679;51.218;6.786;2022-11-15T03:30:34;7.87;;;4.43;;
10582;SDS011;33679;51.218;6.786;2022-11-15T03:33:22;5.67;;;3.93;;
10582;SDS011;33679;51.218;6.786;2022-11-15T03:36:08;6.40;;;4.70;;
10582;SDS011;33679;51.218;6.786;2022-11-15T03:38:56;8.17;;;5.00;;
10582;SDS011;33679;51.218;6.786;2022-11-15T03:41:47;7.73;;;4.73;;
10582;SDS011;33679;51.218;6.786;2022-11-15T03:44:38;7.27;;;5.03;;
10582;SDS011;33679;51.218;6.786;2022-11-15T03:47:27;5.97;;;4.07;;
10582;SDS011;33679;51.218;6.786;2022-11-15T03:50:18;8.70;;;5.00;;
10582;SDS011;33679;51.218;6.786;2022-11-15T03:53:06;7.40;;;4.60;;
10582;SDS011;33679;51.218;6.786;2022-11-15T03:55:53;6.77;;;4.73;;
10582;SDS011;33679;51.218;6.786;2022-11-15T03:58:39;6.13;;;4.63;;
10582;SDS011;33679;51.218;6.786;2022-11-15T04:01:25;7.40;;;4.03;;
10582;SDS011;33679;51.218;6.786;2022-11-15T04:04:11;6.00;;;4.23;;
10582;SDS011;33679;51.218;6.786;2022-11-15T04:06:56;6.10;;;4.50;;
10582;SDS011;33679;51.218;6.786;2022-11-15T04:09:42;6.50;;;4.57;;
10582;SDS011;33679;51.218;6.786;2022-11-15T04:12:43;6.27;;;4.60;;
10582;SDS011;33679;51.218;6.786;2022-11-15T04:15:31;11.57;;;4.50;;
10582;SDS011;33679;51.218;6.786;2022-11-15T04:18:17;6.00;;;4.93;;
10582;SDS011;33679;51.218;6.786;2022-11-15T04:21:07;6.80;;;4.30;;
10582;SDS011;33679;51.218;6.786;2022-11-15T04:24:10;6.73;;;4.97;;
10582;SDS011;33679;51.218;6.786;2022-11-15T04:26:59;13.03;;;5.70;;
10582;SDS011;33679;51.218;6.786;2022-11-15T04:29:47;6.63;;;4.77;;
10582;SDS011;33679;51.218;6.786;2022-11-15T04:32:33;7.37;;;4.73;;
10582;SDS011;33679;51.218;6.786;2022-11-15T04:35:18;5.03;;;4.00;;
10582;SDS011;33679;51.218;6.786;2022-11-15T04:38:05;8.20;;;4.17;;
10582;SDS011;33679;51.218;6.786;2022-11-15T04:40:52;6.00;;;4.20;;
10582;SDS011;33679;51.218;6.786;2022-11-15T04:43:37;5.50;;;4.20;;
10582;SDS011;33679;51.218;6.786;2022-11-15T04:46:25;6.83;;;4.47;;
10582;SDS011;33679;51.218;6.786;2022-11-15T04:49:11;6.50;;;4.53;;
10582;SDS011;33679;51.218;6.786;2022-11-15T04:51:56;5.70;;;3.80;;
10582;SDS011;33679;51.218;6.786;2022-11-15T04:54:42;6.93;;;3.60;;
10582;SDS011;33679;51.218;6.786;2022-11-15T04:57:28;5.67;;;4.53;;
10582;SDS011;33679;51.218;6.786;2022-11-15T05:00:14;6.40;;;4.10;;
10582;SDS011;33679;51.218;6.786;2022-11-15T05:03:03;7.40;;;4.70;;
10582;SDS011;33679;51.218;6.786;2022-11-15T05:06:06;6.50;;;4.07;;
10582;SDS011;33679;51.218;6.786;2022-11-15T05:08:52;12.90;;;5.30;;
10582;SDS011;33679;51.218;6.786;2022-11-15T05:11:38;6.30;;;4.23;;
10582;SDS011;33679;51.218;6.786;2022-11-15T05:14:24;6.13;;;3.87;;
10582;SDS011;33679;51.218;6.786;2022-11-15T05:17:10;8.10;;;4.80;;
10582;SDS011;33679;51.218;6.786;2022-11-15T05:19:57;6.80;;;4.60;;
10582;SDS011;33679;51.218;6.786;2022-11-15T05:22:43;6.00;;;4.17;;
10582;SDS011;33679;51.218;6.786;2022-11-15T05:25:29;6.33;;;4.27;;
10582;SDS011;33679;51.218;6.786;2022-11-15T05:28:14;6.53;;;4.33;;
10582;SDS011;33679;51.218;6.786;2022-11-15T05:31:00;5.63;;;4.00;;
10582;SDS011;33679;51.218;6.786;2022-11-15T05:33:48;5.10;;;3.70;;
10582;SDS011;33679;51.218;6.786;2022-11-15T05:36:37;6.43;;;4.00;;
10582;SDS011;33679;51.218;6.786;2022-11-15T05:39:24;5.77;;;4.30;;
10582;SDS011;33679;51.218;6.786;2022-11-15T05:42:13;6.17;;;4.10;;
10582;SDS011;33679;51.218;6.786;2022-11-15T05:45:00;7.50;;;4.20;;
10582;SDS011;33679;51.218;6.786;2022-11-15T05:47:48;6.70;;;4.60;;
10582;SDS011;33679;51.218;6.786;2022-11-15T05:50:36;7.60;;;4.20;;
10582;SDS011;33679;51.218;6.786;2022-11-15T05:53:27;5.70;;;4.17;;
10582;SDS011;33679;51.218;6.786;2022-11-15T05:56:14;4.63;;;3.70;;
10582;SDS011;33679;51.218;6.786;2022-11-15T05:59:01;6.10;;;4.50;;
10582;SDS011;33679;51.218;6.786;2022-11-15T06:01:48;5.97;;;4.00;;
10582;SDS011;33679;51.218;6.786;2022-11-15T06:04:34;3.60;;;3.27;;
10582;SDS011;33679;51.218;6.786;2022-11-15T06:07:20;4.50;;;3.60;;
10582;SDS011;33679;51.218;6.786;2022-11-15T06:10:08;7.03;;;4.50;;
10582;SDS011;33679;51.218;6.786;2022-11-15T06:12:57;6.77;;;4.47;;
10582;SDS011;33679;51.218;6.786;2022-11-15T06:15:43;4.73;;;3.70;;
10582;SDS011;33679;51.218;6.786;2022-11-15T06:18:31;4.93;;;3.70;;
10582;SDS011;33679;51.218;6.786;2022-11-15T06:21:18;6.03;;;3.90;;
10582;SDS011;33679;51.218;6.786;2022-11-15T06:24:04;4.93;;;4.03;;
10582;SDS011;33679;51.218;6.786;2022-11-15T06:26:52;6.50;;;4.50;;
10582;SDS011;33679;51.218;6.786;2022-11-15T06:29:38;4.40;;;3.10;;
10582;SDS011;33679;51.218;6.786;2022-11-15T06:32:24;5.67;;;3.67;;
10582;SDS011;33679;51.218;6.786;2022-11-15T06:35:10;5.90;;;3.47;;
10582;SDS011;33679;51.218;6.786;2022-11-15T06:37:55;5.07;;;3.97;;
10582;SDS011;33679;51.218;6.786;2022-11-15T06:40:46;3.53;;;3.23;;
10582;SDS011;33679;51.218;6.786;2022-11-15T06:43:33;3.73;;;3.33;;
10582;SDS011;33679;51.218;6.786;2022-11-15T06:46:19;3.80;;;2.90;;
10582;SDS011;33679;51.218;6.786;2022-11-15T06:49:05;4.80;;;3.40;;
10582;SDS011;33679;51.218;6.786;2022-11-15T06:51:51;5.67;;;3.73;;
10582;SDS011;33679;51.218;6.786;2022-11-15T06:54:37;4.33;;;3.10;;
10582;SDS011;33679;51.218;6.786;2022-11-15T06:57:22;4.00;;;3.07;;
10582;SDS011;33679;51.218;6.786;2022-11-15T07:00:11;5.30;;;3.10;;
10582;SDS011;33679;51.218;6.786;2022-11-15T07:02:59;3.43;;;3.00;;
10582;SDS011;33679;51.218;6.786;2022-11-15T07:05:50;4.70;;;3.40;;
10582;SDS011;33679;51.218;6.786;2022-11-15T07:08:37;3.57;;;2.97;;
10582;SDS011;33679;51.218;6.786;2022-11-15T07:11:25;6.20;;;2.90;;
10582;SDS011;33679;51.218;6.786;2022-11-15T07:14:11;5.83;;;3.90;;
10582;SDS011;33679;51.218;6.786;2022-11-15T07:16:58;4.30;;;2.73;;
10582;SDS011;33679;51.218;6.786;2022-11-15T07:19:44;4.70;;;3.40;;
10582;SDS011;33679;51.218;6.786;2022-11-15T07:22:37;4.70;;;3.40;;
10582;SDS011;33679;51.218;6.786;2022-11-15T07:25:23;4.07;;;3.10;;
10582;SDS011;33679;51.218;6.786;2022-11-15T07:28:09;4.17;;;3.07;;
10582;SDS011;33679;51.218;6.786;2022-11-15T07:30:55;13.87;;;7.87;;
10582;SDS011;33679;51.218;6.786;2022-11-15T07:33:42;4.07;;;3.57;;
10582;SDS011;33679;51.218;6.786;2022-11-15T07:36:28;4.20;;;3.00;;
10582;SDS011;33679;51.218;6.786;2022-11-15T07:39:16;4.53;;;2.80;;
10582;SDS011;33679;51.218;6.786;2022-11-15T07:42:01;6.40;;;3.30;;
10582;SDS011;33679;51.218;6.786;2022-11-15T07:45:05;3.53;;;2.77;;
10582;SDS011;33679;51.218;6.786;2022-11-15T07:47:52;5.03;;;3.60;;
10582;SDS011;33679;51.218;6.786;2022-11-15T07:50:42;8.00;;;4.70;;
10582;SDS011;33679;51.218;6.786;2022-11-15T07:53:28;5.23;;;3.40;;
10582;SDS011;33679;51.218;6.786;2022-11-15T07:56:15;3.87;;;2.50;;
10582;SDS011;33679;51.218;6.786;2022-11-15T07:59:01;5.60;;;3.10;;
10582;SDS011;33679;51.218;6.786;2022-11-15T08:01:47;3.53;;;2.90;;
10582;SDS011;33679;51.218;6.786;2022-11-15T08:04:36;4.20;;;2.53;;
10582;SDS011;33679;51.218;6.786;2022-11-15T08:07:23;3.90;;;2.87;;
10582;SDS011;33679;51.218;6.786;2022-11-15T08:10:09;2.50;;;2.20;;
10582;SDS011;33679;51.218;6.786;2022-11-15T08:12:59;4.10;;;2.17;;
10582;SDS011;33679;51.218;6.786;2022-11-15T08:15:56;4.10;;;2.10;;
10582;SDS011;33679;51.218;6.786;2022-11-15T08:18:43;4.13;;;2.20;;
10582;SDS011;33679;51.218;6.786;2022-11-15T08:21:29;5.83;;;2.47;;
10582;SDS011;33679;51.218;6.786;2022-11-15T08:24:16;3.70;;;2.53;;
10582;SDS011;33679;51.218;6.786;2022-11-15T08:27:02;6.97;;;4.53;;
10582;SDS011;33679;51.218;6.786;2022-11-15T08:29:48;6.43;;;4.13;;
10582;SDS011;33679;51.218;6.786;2022-11-15T08:32:37;3.37;;;2.70;;
10582;SDS011;33679;51.218;6.786;2022-11-15T08:35:25;6.07;;;2.57;;
10582;SDS011;33679;51.218;6.786;2022-11-15T08:38:11;2.20;;;1.90;;
10582;SDS011;33679;51.218;6.786;2022-11-15T08:41:03;2.90;;;2.10;;
10582;SDS011;33679;51.218;6.786;2022-11-15T08:43:52;2.83;;;2.07;;
10582;SDS011;33679;51.218;6.786;2022-11-15T08:46:38;2.57;;;1.73;;
10582;SDS011;33679;51.218;6.786;2022-11-15T08:49:24;3.20;;;2.10;;
10582;SDS011;33679;51.218;6.786;2022-11-15T08:52:13;3.63;;;2.37;;
10582;SDS011;33679;51.218;6.786;2022-11-15T08:54:59;3.13;;;2.43;;
10582;SDS011;33679;51.218;6.786;2022-11-15T08:57:48;2.80;;;2.17;;
10582;SDS011;33679;51.218;6.786;2022-11-15T09:00:34;3.30;;;2.20;;
10582;SDS011;33679;51.218;6.786;2022-11-15T09:03:20;2.60;;;1.83;;
10582;SDS011;33679;51.218;6.786;2022-11-15T09:06:06;2.77;;;2.00;;
10582;SDS011;33679;51.218;6.786;2022-11-15T09:08:52;3.23;;;2.00;;
10582;SDS011;33679;51.218;6.786;2022-11-15T09:11:38;3.03;;;1.70;;
10582;SDS011;33679;51.218;6.786;2022-11-15T09:14:25;3.50;;;2.20;;
10582;SDS011;33679;51.218;6.786;2022-11-15T09:17:11;5.13;;;2.60;;
10582;SDS011;33679;51.218;6.786;2022-11-15T09:19:57;5.90;;;2.00;;
10582;SDS011;33679;51.218;6.786;2022-11-15T09:22:43;3.00;;;1.63;;
10582;SDS011;33679;51.218;6.786;2022-11-15T09:25:29;1.67;;;1.50;;
10582;SDS011;33679;51.218;6.786;2022-11-15T09:28:15;2.17;;;1.67;;
10582;SDS011;33679;51.218;6.786;2022-11-15T09:31:04;2.20;;;1.83;;
10582;SDS011;33679;51.218;6.786;2022-11-15T09:33:50;1.50;;;1.40;;
10582;SDS011;33679;51.218;6.786;2022-11-15T09:36:36;2.83;;;1.43;;
10582;SDS011;33679;51.218;6.786;2022-11-15T09:39:22;3.50;;;1.80;;
10582;SDS011;33679;51.218;6.786;2022-11-15T09:42:12;1.87;;;1.57;;
10582;SDS011;33679;51.218;6.786;2022-11-15T09:45:13;2.07;;;1.70;;
10582;SDS011;33679;51.218;6.786;2022-11-15T09:48:08;3.47;;;2.07;;
10582;SDS011;33679;51.218;6.786;2022-11-15T09:51:18;2.93;;;1.40;;
10582;SDS011;33679;51.218;6.786;2022-11-15T09:53:52;1.60;;;1.40;;
10582;SDS011;33679;51.218;6.786;2022-11-15T09:56:29;7.50;;;1.50;;
10582;SDS011;33679;51.218;6.786;2022-11-15T09:59:05;2.20;;;1.33;;
10582;SDS011;33679;51.218;6.786;2022-11-15T10:01:49;3.77;;;1.77;;
10582;SDS011;33679;51.218;6.786;2022-11-15T10:04:24;4.20;;;1.60;;
10582;SDS011;33679;51.218;6.786;2022-11-15T10:06:58;6.30;;;1.60;;
10582;SDS011;33679;51.218;6.786;2022-11-15T10:09:34;2.40;;;1.37;;
10582;SDS011;33679;51.218;6.786;2022-11-15T10:12:06;2.60;;;1.40;;
10582;SDS011;33679;51.218;6.786;2022-11-15T10:14:35;1.97;;;1.47;;
10582;SDS011;33679;51.218;6.786;2022-11-15T10:17:09;1.57;;;1.23;;
10582;SDS011;33679;51.218;6.786;2022-11-15T10:20:05;7.60;;;1.70;;
10582;SDS011;33679;51.218;6.786;2022-11-15T10:22:38;4.00;;;1.73;;
10582;SDS011;33679;51.218;6.786;2022-11-15T10:25:18;2.30;;;1.30;;
10582;SDS011;33679;51.218;6.786;2022-11-15T10:27:51;5.67;;;1.50;;
10582;SDS011;33679;51.218;6.786;2022-11-15T10:30:21;2.00;;;1.63;;
10582;SDS011;33679;51.218;6.786;2022-11-15T10:32:50;2.80;;;1.60;;
10582;SDS011;33679;51.218;6.786;2022-11-15T10:35:27;3.83;;;1.50;;
10582;SDS011;33679;51.218;6.786;2022-11-15T10:38:04;2.30;;;1.80;;
10582;SDS011;33679;51.218;6.786;2022-11-15T10:41:06;4.30;;;1.30;;
10582;SDS011;33679;51.218;6.786;2022-11-15T10:43:40;1.57;;;1.30;;
10582;SDS011;33679;51.218;6.786;2022-11-15T10:49:55;3.67;;;1.40;;
10582;SDS011;33679;51.218;6.786;2022-11-15T10:52:38;2.63;;;1.10;;
10582;SDS011;33679;51.218;6.786;2022-11-15T10:58:22;1.27;;;1.00;;
10582;SDS011;33679;51.218;6.786;2022-11-15T11:01:04;2.67;;;1.20;;
10582;SDS011;33679;51.218;6.786;2022-11-15T11:03:36;3.70;;;1.90;;
10582;SDS011;33679;51.218;6.786;2022-11-15T11:06:06;1.53;;;1.20;;
10582;SDS011;33679;51.218;6.786;2022-11-15T11:08:37;2.23;;;1.20;;
10582;SDS011;33679;51.218;6.786;2022-11-15T11:11:05;4.80;;;1.13;;
10582;SDS011;33679;51.218;6.786;2022-11-15T11:13:34;1.50;;;1.20;;
10582;SDS011;33679;51.218;6.786;2022-11-15T11:16:18;11.70;;;1.37;;
10582;SDS011;33679;51.218;6.786;2022-11-15T11:19:05;3.13;;;1.20;;
10582;SDS011;33679;51.218;6.786;2022-11-15T11:21:44;1.40;;;1.00;;
10582;SDS011;33679;51.218;6.786;2022-11-15T11:24:21;1.77;;;1.23;;
10582;SDS011;33679;51.218;6.786;2022-11-15T11:27:01;1.77;;;1.00;;
10582;SDS011;33679;51.218;6.786;2022-11-15T11:29:43;2.43;;;1.20;;
10582;SDS011;33679;51.218;6.786;2022-11-15T11:32:29;4.03;;;1.60;;
10582;SDS011;33679;51.218;6.786;2022-11-15T11:35:11;3.30;;;1.60;;
10582;SDS011;33679;51.218;6.786;2022-11-15T11:37:43;2.37;;;1.70;;
10582;SDS011;33679;51.218;6.786;2022-11-15T11:40:24;2.20;;;1.40;;
10582;SDS011;33679;51.218;6.786;2022-11-15T11:42:57;3.87;;;2.07;;
10582;SDS011;33679;51.218;6.786;2022-11-15T11:45:41;10.77;;;2.30;;
10582;SDS011;33679;51.218;6.786;2022-11-15T11:48:21;2.00;;;1.00;;
10582;SDS011;33679;51.218;6.786;2022-11-15T11:51:07;3.67;;;1.17;;
10582;SDS011;33679;51.218;6.786;2022-11-15T11:53:47;2.20;;;1.20;;
10582;SDS011;33679;51.218;6.786;2022-11-15T11:56:25;3.47;;;1.10;;
10582;SDS011;33679;51.218;6.786;2022-11-15T11:58:56;2.63;;;1.50;;
10582;SDS011;33679;51.218;6.786;2022-11-15T12:01:28;4.73;;;2.57;;
10582;SDS011;33679;51.218;6.786;2022-11-15T12:04:08;2.27;;;1.50;;
10582;SDS011;33679;51.218;6.786;2022-11-15T12:06:41;2.93;;;1.30;;
10582;SDS011;33679;51.218;6.786;2022-11-15T12:09:15;3.40;;;1.30;;
10582;SDS011;33679;51.218;6.786;2022-11-15T12:11:51;2.80;;;1.73;;
10582;SDS011;33679;51.218;6.786;2022-11-15T12:14:27;2.83;;;1.30;;
10582;SDS011;33679;51.218;6.786;2022-11-15T12:17:02;8.27;;;1.67;;
10582;SDS011;33679;51.218;6.786;2022-11-15T12:19:32;3.00;;;1.67;;
10582;SDS011;33679;51.218;6.786;2022-11-15T12:22:02;2.97;;;1.00;;
10582;SDS011;33679;51.218;6.786;2022-11-15T12:24:34;1.60;;;1.00;;
10582;SDS011;33679;51.218;6.786;2022-11-15T12:27:13;5.43;;;2.40;;
10582;SDS011;33679;51.218;6.786;2022-11-15T12:29:44;2.57;;;1.30;;
10582;SDS011;33679;51.218;6.786;2022-11-15T12:32:21;4.10;;;1.03;;
10582;SDS011;33679;51.218;6.786;2022-11-15T12:34:55;2.03;;;1.00;;
10582;SDS011;33679;51.218;6.786;2022-11-15T12:40:28;1.93;;;1.00;;
10582;SDS011;33679;51.218;6.786;2022-11-15T12:42:59;4.83;;;1.00;;
10582;SDS011;33679;51.218;6.786;2022-11-15T12:45:45;6.83;;;3.10;;
10582;SDS011;33679;51.218;6.786;2022-11-15T12:57:35;1.63;;;1.17;;
10582;SDS011;33679;51.218;6.786;2022-11-15T13:03:22;3.07;;;1.30;;
10582;SDS011;33679;51.218;6.786;2022-11-15T13:06:33;4.40;;;1.43;;
10582;SDS011;33679;51.218;6.786;2022-11-15T13:09:03;1.67;;;0.93;;
10582;SDS011;33679;51.218;6.786;2022-11-15T13:11:50;3.10;;;1.20;;
10582;SDS011;33679;51.218;6.786;2022-11-15T13:20:14;3.47;;;1.10;;
10582;SDS011;33679;51.218;6.786;2022-11-15T13:22:52;5.30;;;1.90;;
10582;SDS011;33679;51.218;6.786;2022-11-15T13:25:36;2.53;;;1.70;;
10582;SDS011;33679;51.218;6.786;2022-11-15T13:28:31;2.07;;;1.00;;
10582;SDS011;33679;51.218;6.786;2022-11-15T13:31:00;4.73;;;1.00;;
10582;SDS011;33679;51.218;6.786;2022-11-15T13:33:30;2.27;;;1.47;;
10582;SDS011;33679;51.218;6.786;2022-11-15T13:36:02;4.13;;;2.10;;
10582;SDS011;33679;51.218;6.786;2022-11-15T13:38:33;3.23;;;1.23;;
10582;SDS011;33679;51.218;6.786;2022-11-15T13:41:10;2.40;;;1.50;;
10582;SDS011;33679;51.218;6.786;2022-11-15T13:43:48;3.43;;;1.90;;
10582;SDS011;33679;51.218;6.786;2022-11-15T13:46:17;6.63;;;1.40;;
10582;SDS011;33679;51.218;6.786;2022-11-15T13:48:53;3.63;;;1.40;;
10582;SDS011;33679;51.218;6.786;2022-11-15T13:51:25;4.20;;;2.27;;
10582;SDS011;33679;51.218;6.786;2022-11-15T13:54:02;5.27;;;2.40;;
10582;SDS011;33679;51.218;6.786;2022-11-15T13:56:36;6.60;;;1.70;;
10582;SDS011;33679;51.218;6.786;2022-11-15T13:59:13;3.83;;;1.70;;
10582;SDS011;33679;51.218;6.786;2022-11-15T14:01:44;6.13;;;1.20;;
10582;SDS011;33679;51.218;6.786;2022-11-15T14:04:11;2.83;;;1.33;;
10582;SDS011;33679;51.218;6.786;2022-11-15T14:06:46;2.10;;;1.40;;
10582;SDS011;33679;51.218;6.786;2022-11-15T14:14:56;3.33;;;1.30;;
10582;SDS011;33679;51.218;6.786;2022-11-15T14:17:34;2.80;;;1.57;;
10582;SDS011;33679;51.218;6.786;2022-11-15T14:22:58;1.63;;;1.27;;
10582;SDS011;33679;51.218;6.786;2022-11-15T14:25:27;5.30;;;1.70;;
10582;SDS011;33679;51.218;6.786;2022-11-15T14:31:04;3.00;;;1.43;;
10582;SDS011;33679;51.218;6.786;2022-11-15T14:33:37;3.03;;;1.47;;
10582;SDS011;33679;51.218;6.786;2022-11-15T14:36:06;3.57;;;1.67;;
10582;SDS011;33679;51.218;6.786;2022-11-15T14:38:42;3.30;;;1.60;;
10582;SDS011;33679;51.218;6.786;2022-11-15T14:41:11;1.90;;;1.70;;
10582;SDS011;33679;51.218;6.786;2022-11-15T14:43:45;5.67;;;1.63;;
10582;SDS011;33679;51.218;6.786;2022-11-15T14:46:13;2.20;;;1.73;;
10582;SDS011;33679;51.218;6.786;2022-11-15T14:48:40;5.10;;;2.00;;
10582;SDS011;33679;51.218;6.786;2022-11-15T14:51:11;3.00;;;2.00;;
10582;SDS011;33679;51.218;6.786;2022-11-15T14:53:40;3.20;;;2.00;;
10582;SDS011;33679;51.218;6.786;2022-11-15T14:56:12;2.77;;;1.90;;
10582;SDS011;33679;51.218;6.786;2022-11-15T14:58:40;5.07;;;3.63;;
10582;SDS011;33679;51.218;6.786;2022-11-15T15:01:10;2.90;;;2.20;;
10582;SDS011;33679;51.218;6.786;2022-11-15T15:03:42;4.53;;;1.80;;
10582;SDS011;33679;51.218;6.786;2022-11-15T15:06:09;3.60;;;1.80;;
10582;SDS011;33679;51.218;6.786;2022-11-15T15:08:41;8.10;;;2.43;;
10582;SDS011;33679;51.218;6.786;2022-11-15T15:11:10;5.37;;;2.43;;
10582;SDS011;33679;51.218;6.786;2022-11-15T15:13:42;3.20;;;2.30;;
10582;SDS011;33679;51.218;6.786;2022-11-15T15:16:10;3.53;;;2.10;;
10582;SDS011;33679;51.218;6.786;2022-11-15T15:18:37;3.60;;;2.20;;
10582;SDS011;33679;51.218;6.786;2022-11-15T15:21:11;2.30;;;2.10;;
10582;SDS011;33679;51.218;6.786;2022-11-15T15:23:45;5.20;;;2.30;;
10582;SDS011;33679;51.218;6.786;2022-11-15T15:26:16;3.93;;;2.40;;
10582;SDS011;33679;51.218;6.786;2022-11-15T15:28:47;3.10;;;2.00;;
10582;SDS011;33679;51.218;6.786;2022-11-15T15:31:16;5.03;;;2.80;;
10582;SDS011;33679;51.218;6.786;2022-11-15T15:33:43;2.70;;;2.03;;
10582;SDS011;33679;51.218;6.786;2022-11-15T15:36:11;3.23;;;2.20;;
10582;SDS011;33679;51.218;6.786;2022-11-15T15:38:40;2.60;;;1.90;;
10582;SDS011;33679;51.218;6.786;2022-11-15T15:41:08;3.53;;;2.10;;
10582;SDS011;33679;51.218;6.786;2022-11-15T15:43:38;3.70;;;2.33;;
10582;SDS011;33679;51.218;6.786;2022-11-15T15:46:07;3.63;;;2.70;;
10582;SDS011;33679;51.218;6.786;2022-11-15T15:48:36;2.20;;;1.80;;
10582;SDS011;33679;51.218;6.786;2022-11-15T15:51:04;3.10;;;2.00;;
10582;SDS011;33679;51.218;6.786;2022-11-15T15:53:32;2.70;;;1.67;;
10582;SDS011;33679;51.218;6.786;2022-11-15T15:55:59;2.60;;;1.77;;
10582;SDS011;33679;51.218;6.786;2022-11-15T15:58:27;3.73;;;2.07;;
10582;SDS011;33679;51.218;6.786;2022-11-15T16:00:56;3.60;;;2.53;;
10582;SDS011;33679;51.218;6.786;2022-11-15T16:03:23;6.40;;;3.13;;
10582;SDS011;33679;51.218;6.786;2022-11-15T16:05:51;2.90;;;1.67;;
10582;SDS011;33679;51.218;6.786;2022-11-15T16:08:21;2.20;;;1.93;;
10582;SDS011;33679;51.218;6.786;2022-11-15T16:10:49;2.67;;;1.80;;
10582;SDS011;33679;51.218;6.786;2022-11-15T16:13:17;2.73;;;1.80;;
10582;SDS011;33679;51.218;6.786;2022-11-15T16:15:44;5.60;;;2.10;;
10582;SDS011;33679;51.218;6.786;2022-11-15T16:18:17;3.40;;;2.10;;
10582;SDS011;33679;51.218;6.786;2022-11-15T16:20:46;2.83;;;2.00;;
10582;SDS011;33679;51.218;6.786;2022-11-15T16:23:17;4.30;;;2.63;;
10582;SDS011;33679;51.218;6.786;2022-11-15T16:25:49;1.93;;;1.73;;
10582;SDS011;33679;51.218;6.786;2022-11-15T16:28:19;3.13;;;1.87;;
10582;SDS011;33679;51.218;6.786;2022-11-15T16:30:49;2.13;;;1.83;;
10582;SDS011;33679;51.218;6.786;2022-11-15T16:33:28;2.63;;;1.60;;
10582;SDS011;33679;51.218;6.786;2022-11-15T16:35:55;3.90;;;1.60;;
10582;SDS011;33679;51.218;6.786;2022-11-15T16:38:22;3.30;;;1.90;;
10582;SDS011;33679;51.218;6.786;2022-11-15T16:40:53;2.40;;;2.00;;
10582;SDS011;33679;51.218;6.786;2022-11-15T16:43:22;2.87;;;1.90;;
10582;SDS011;33679;51.218;6.786;2022-11-15T16:45:49;4.47;;;1.90;;
10582;SDS011;33679;51.218;6.786;2022-11-15T16:48:20;5.50;;;1.70;;
10582;SDS011;33679;51.218;6.786;2022-11-15T16:50:54;4.57;;;2.30;;
10582;SDS011;33679;51.218;6.786;2022-11-15T16:53:22;2.67;;;1.60;;
10582;SDS011;33679;51.218;6.786;2022-11-15T16:55:50;8.00;;;5.50;;
10582;SDS011;33679;51.218;6.786;2022-11-15T16:58:17;2.83;;;2.47;;
10582;SDS011;33679;51.218;6.786;2022-11-15T17:00:51;3.60;;;2.00;;